sensor_id;sensor_type;location;lat;lon;timestamp;P1;durP1;ratioP1;P2;durP2;ratioP2
3427;SDS011;1727;42.624;23.406;2023-02-28T00:00:09;32.53;;;19.40;;
3427;SDS011;1727;42.624;23.406;2023-02-28T00:02:37;29.87;;;19.77;;
3427;SDS011;1727;42.624;23.406;2023-02-28T00:05:04;35.97;;;19.47;;
3427;SDS011;1727;42.624;23.406;2023-02-28T00:07:32;44.93;;;24.83;;
3427;SDS011;1727;42.624;23.406;2023-02-28T00:09:59;65.37;;;37.37;;
3427;SDS011;1727;42.624;23.406;2023-02-28T00:12:26;58.77;;;32.77;;
3427;SDS011;1727;42.624;23.406;2023-02-28T00:14:55;40.03;;;23.60;;
3427;SDS011;1727;42.624;23.406;2023-02-28T00:17:21;35.03;;;21.53;;
3427;SDS011;1727;42.624;23.406;2023-02-28T00:19:48;30.37;;;18.83;;
3427;SDS011;1727;42.624;23.406;2023-02-28T00:22:16;31.53;;;19.00;;
3427;SDS011;1727;42.624;23.406;2023-02-28T00:24:45;22.67;;;15.47;;
3427;SDS011;1727;42.624;23.406;2023-02-28T00:27:12;33.33;;;20.73;;
3427;SDS011;1727;42.624;23.406;2023-02-28T00:29:39;29.90;;;21.53;;
3427;SDS011;1727;42.624;23.406;2023-02-28T00:32:08;33.60;;;23.70;;
3427;SDS011;1727;42.624;23.406;2023-02-28T00:34:34;26.40;;;16.83;;
3427;SDS011;1727;42.624;23.406;2023-02-28T00:37:03;27.10;;;16.80;;
3427;SDS011;1727;42.624;23.406;2023-02-28T00:39:30;27.93;;;15.57;;
3427;SDS011;1727;42.624;23.406;2023-02-28T00:41:59;24.17;;;15.80;;
3427;SDS011;1727;42.624;23.406;2023-02-28T00:44:25;27.57;;;15.73;;
3427;SDS011;1727;42.624;23.406;2023-02-28T00:46:52;27.30;;;17.27;;
3427;SDS011;1727;42.624;23.406;2023-02-28T00:49:22;27.13;;;16.00;;
3427;SDS011;1727;42.624;23.406;2023-02-28T00:51:49;35.13;;;18.77;;
3427;SDS011;1727;42.624;23.406;2023-02-28T00:54:16;29.50;;;19.43;;
3427;SDS011;1727;42.624;23.406;2023-02-28T00:56:43;32.60;;;20.83;;
3427;SDS011;1727;42.624;23.406;2023-02-28T00:59:11;41.40;;;22.47;;
3427;SDS011;1727;42.624;23.406;2023-02-28T01:01:38;36.00;;;23.17;;
3427;SDS011;1727;42.624;23.406;2023-02-28T01:04:04;32.07;;;21.67;;
3427;SDS011;1727;42.624;23.406;2023-02-28T01:06:33;37.37;;;21.90;;
3427;SDS011;1727;42.624;23.406;2023-02-28T01:08:59;32.30;;;20.57;;
3427;SDS011;1727;42.624;23.406;2023-02-28T01:11:26;35.20;;;22.07;;
3427;SDS011;1727;42.624;23.406;2023-02-28T01:13:53;35.10;;;20.60;;
3427;SDS011;1727;42.624;23.406;2023-02-28T01:16:20;34.77;;;19.90;;
3427;SDS011;1727;42.624;23.406;2023-02-28T01:18:46;27.07;;;19.17;;
3427;SDS011;1727;42.624;23.406;2023-02-28T01:21:14;37.13;;;20.63;;
3427;SDS011;1727;42.624;23.406;2023-02-28T01:23:44;37.07;;;20.00;;
3427;SDS011;1727;42.624;23.406;2023-02-28T01:26:12;34.40;;;19.47;;
3427;SDS011;1727;42.624;23.406;2023-02-28T01:28:40;36.30;;;21.60;;
3427;SDS011;1727;42.624;23.406;2023-02-28T01:31:08;38.53;;;22.10;;
3427;SDS011;1727;42.624;23.406;2023-02-28T01:33:35;33.37;;;23.10;;
3427;SDS011;1727;42.624;23.406;2023-02-28T01:36:03;35.47;;;22.90;;
3427;SDS011;1727;42.624;23.406;2023-02-28T01:38:32;32.47;;;20.27;;
3427;SDS011;1727;42.624;23.406;2023-02-28T01:41:01;32.57;;;20.63;;
3427;SDS011;1727;42.624;23.406;2023-02-28T01:43:29;32.57;;;19.43;;
3427;SDS011;1727;42.624;23.406;2023-02-28T01:45:57;29.60;;;18.20;;
3427;SDS011;1727;42.624;23.406;2023-02-28T01:48:25;36.40;;;18.93;;
3427;SDS011;1727;42.624;23.406;2023-02-28T01:50:55;33.50;;;20.50;;
3427;SDS011;1727;42.624;23.406;2023-02-28T01:53:26;26.77;;;18.53;;
3427;SDS011;1727;42.624;23.406;2023-02-28T01:55:58;26.93;;;18.00;;
3427;SDS011;1727;42.624;23.406;2023-02-28T01:58:26;31.57;;;18.97;;
3427;SDS011;1727;42.624;23.406;2023-02-28T02:00:53;32.93;;;20.30;;
3427;SDS011;1727;42.624;23.406;2023-02-28T02:03:20;32.40;;;21.13;;
3427;SDS011;1727;42.624;23.406;2023-02-28T02:05:47;26.77;;;17.73;;
3427;SDS011;1727;42.624;23.406;2023-02-28T02:08:15;31.03;;;19.13;;
3427;SDS011;1727;42.624;23.406;2023-02-28T02:10:51;32.77;;;18.93;;
3427;SDS011;1727;42.624;23.406;2023-02-28T02:13:28;31.67;;;18.27;;
3427;SDS011;1727;42.624;23.406;2023-02-28T02:16:16;28.27;;;18.17;;
3427;SDS011;1727;42.624;23.406;2023-02-28T02:18:55;24.97;;;16.40;;
3427;SDS011;1727;42.624;23.406;2023-02-28T02:21:33;29.83;;;18.30;;
3427;SDS011;1727;42.624;23.406;2023-02-28T02:24:24;25.63;;;17.13;;
3427;SDS011;1727;42.624;23.406;2023-02-28T02:30:19;27.03;;;17.27;;
3427;SDS011;1727;42.624;23.406;2023-02-28T02:33:05;30.00;;;18.97;;
3427;SDS011;1727;42.624;23.406;2023-02-28T02:35:43;30.33;;;20.13;;
3427;SDS011;1727;42.624;23.406;2023-02-28T02:38:19;36.47;;;21.27;;
3427;SDS011;1727;42.624;23.406;2023-02-28T02:40:58;40.20;;;18.30;;
3427;SDS011;1727;42.624;23.406;2023-02-28T02:43:32;31.93;;;17.87;;
3427;SDS011;1727;42.624;23.406;2023-02-28T02:46:03;32.27;;;19.00;;
3427;SDS011;1727;42.624;23.406;2023-02-28T02:48:33;29.67;;;16.93;;
3427;SDS011;1727;42.624;23.406;2023-02-28T02:51:05;28.03;;;18.07;;
3427;SDS011;1727;42.624;23.406;2023-02-28T02:53:37;32.17;;;17.07;;
3427;SDS011;1727;42.624;23.406;2023-02-28T02:56:08;41.30;;;24.37;;
3427;SDS011;1727;42.624;23.406;2023-02-28T02:58:38;40.43;;;23.13;;
3427;SDS011;1727;42.624;23.406;2023-02-28T03:01:08;31.40;;;19.50;;
3427;SDS011;1727;42.624;23.406;2023-02-28T03:03:39;32.53;;;20.17;;
3427;SDS011;1727;42.624;23.406;2023-02-28T03:06:07;33.50;;;21.20;;
3427;SDS011;1727;42.624;23.406;2023-02-28T03:08:36;30.70;;;19.30;;
3427;SDS011;1727;42.624;23.406;2023-02-28T03:11:04;33.37;;;19.70;;
3427;SDS011;1727;42.624;23.406;2023-02-28T03:13:42;36.50;;;18.90;;
3427;SDS011;1727;42.624;23.406;2023-02-28T03:16:32;33.70;;;19.40;;
3427;SDS011;1727;42.624;23.406;2023-02-28T03:19:04;36.00;;;21.73;;
3427;SDS011;1727;42.624;23.406;2023-02-28T03:21:45;29.37;;;19.37;;
3427;SDS011;1727;42.624;23.406;2023-02-28T03:24:22;30.83;;;18.03;;
3427;SDS011;1727;42.624;23.406;2023-02-28T03:26:57;36.60;;;19.20;;
3427;SDS011;1727;42.624;23.406;2023-02-28T03:29:33;45.93;;;21.60;;
3427;SDS011;1727;42.624;23.406;2023-02-28T03:32:04;42.03;;;22.47;;
3427;SDS011;1727;42.624;23.406;2023-02-28T03:34:39;38.20;;;21.50;;
3427;SDS011;1727;42.624;23.406;2023-02-28T03:37:14;51.63;;;24.23;;
3427;SDS011;1727;42.624;23.406;2023-02-28T03:39:46;39.53;;;22.77;;
3427;SDS011;1727;42.624;23.406;2023-02-28T03:42:18;44.10;;;22.17;;
3427;SDS011;1727;42.624;23.406;2023-02-28T03:44:48;39.80;;;23.13;;
3427;SDS011;1727;42.624;23.406;2023-02-28T03:47:21;39.67;;;22.07;;
3427;SDS011;1727;42.624;23.406;2023-02-28T03:49:52;47.63;;;22.40;;
3427;SDS011;1727;42.624;23.406;2023-02-28T03:52:25;37.53;;;22.47;;
3427;SDS011;1727;42.624;23.406;2023-02-28T03:54:57;41.00;;;20.50;;
3427;SDS011;1727;42.624;23.406;2023-02-28T03:57:32;38.43;;;22.30;;
3427;SDS011;1727;42.624;23.406;2023-02-28T04:00:05;47.60;;;24.43;;
3427;SDS011;1727;42.624;23.406;2023-02-28T04:02:36;52.00;;;22.00;;
3427;SDS011;1727;42.624;23.406;2023-02-28T04:05:03;42.13;;;23.67;;
3427;SDS011;1727;42.624;23.406;2023-02-28T04:07:32;43.20;;;22.33;;
3427;SDS011;1727;42.624;23.406;2023-02-28T04:09:59;56.23;;;22.97;;
3427;SDS011;1727;42.624;23.406;2023-02-28T04:12:26;81.50;;;21.50;;
3427;SDS011;1727;42.624;23.406;2023-02-28T04:14:52;61.23;;;19.57;;
3427;SDS011;1727;42.624;23.406;2023-02-28T04:17:19;62.30;;;22.53;;
3427;SDS011;1727;42.624;23.406;2023-02-28T04:19:46;54.40;;;22.30;;
3427;SDS011;1727;42.624;23.406;2023-02-28T04:22:13;42.90;;;22.70;;
3427;SDS011;1727;42.624;23.406;2023-02-28T04:24:41;85.20;;;23.17;;
3427;SDS011;1727;42.624;23.406;2023-02-28T04:27:08;50.53;;;20.80;;
3427;SDS011;1727;42.624;23.406;2023-02-28T04:29:35;90.90;;;25.77;;
3427;SDS011;1727;42.624;23.406;2023-02-28T04:32:02;49.87;;;23.37;;
3427;SDS011;1727;42.624;23.406;2023-02-28T04:34:29;66.77;;;26.70;;
3427;SDS011;1727;42.624;23.406;2023-02-28T04:36:57;51.27;;;19.80;;
3427;SDS011;1727;42.624;23.406;2023-02-28T04:39:25;83.67;;;24.60;;
3427;SDS011;1727;42.624;23.406;2023-02-28T04:41:53;58.13;;;19.03;;
3427;SDS011;1727;42.624;23.406;2023-02-28T04:44:21;76.90;;;21.03;;
3427;SDS011;1727;42.624;23.406;2023-02-28T04:46:49;85.97;;;20.20;;
3427;SDS011;1727;42.624;23.406;2023-02-28T04:49:15;77.43;;;21.20;;
3427;SDS011;1727;42.624;23.406;2023-02-28T04:51:42;114.83;;;23.93;;
3427;SDS011;1727;42.624;23.406;2023-02-28T04:54:09;60.37;;;21.10;;
3427;SDS011;1727;42.624;23.406;2023-02-28T04:56:36;80.20;;;26.40;;
3427;SDS011;1727;42.624;23.406;2023-02-28T04:59:04;36.77;;;21.30;;
3427;SDS011;1727;42.624;23.406;2023-02-28T05:01:31;54.40;;;22.67;;
3427;SDS011;1727;42.624;23.406;2023-02-28T05:04:00;39.57;;;20.03;;
3427;SDS011;1727;42.624;23.406;2023-02-28T05:06:29;106.83;;;25.43;;
3427;SDS011;1727;42.624;23.406;2023-02-28T05:08:57;115.23;;;22.87;;
3427;SDS011;1727;42.624;23.406;2023-02-28T05:11:25;83.07;;;27.23;;
3427;SDS011;1727;42.624;23.406;2023-02-28T05:13:58;90.00;;;23.67;;
3427;SDS011;1727;42.624;23.406;2023-02-28T05:16:27;94.07;;;24.20;;
3427;SDS011;1727;42.624;23.406;2023-02-28T05:18:53;70.50;;;23.77;;
3427;SDS011;1727;42.624;23.406;2023-02-28T05:21:24;65.67;;;24.27;;
3427;SDS011;1727;42.624;23.406;2023-02-28T05:23:53;48.63;;;23.00;;
3427;SDS011;1727;42.624;23.406;2023-02-28T05:26:21;37.03;;;22.63;;
3427;SDS011;1727;42.624;23.406;2023-02-28T05:28:47;39.00;;;20.30;;
3427;SDS011;1727;42.624;23.406;2023-02-28T05:31:14;35.80;;;19.50;;
3427;SDS011;1727;42.624;23.406;2023-02-28T05:33:42;34.00;;;21.10;;
3427;SDS011;1727;42.624;23.406;2023-02-28T05:36:09;34.60;;;21.87;;
3427;SDS011;1727;42.624;23.406;2023-02-28T05:38:36;34.37;;;18.90;;
3427;SDS011;1727;42.624;23.406;2023-02-28T05:41:06;37.50;;;20.60;;
3427;SDS011;1727;42.624;23.406;2023-02-28T05:43:34;37.30;;;19.10;;
3427;SDS011;1727;42.624;23.406;2023-02-28T05:46:02;37.27;;;19.53;;
3427;SDS011;1727;42.624;23.406;2023-02-28T05:48:30;32.50;;;18.53;;
3427;SDS011;1727;42.624;23.406;2023-02-28T05:50:59;41.70;;;21.23;;
3427;SDS011;1727;42.624;23.406;2023-02-28T05:53:30;28.87;;;18.37;;
3427;SDS011;1727;42.624;23.406;2023-02-28T05:55:57;35.03;;;20.43;;
3427;SDS011;1727;42.624;23.406;2023-02-28T05:58:24;32.57;;;20.07;;
3427;SDS011;1727;42.624;23.406;2023-02-28T06:00:55;36.20;;;21.10;;
3427;SDS011;1727;42.624;23.406;2023-02-28T06:03:23;36.37;;;19.53;;
3427;SDS011;1727;42.624;23.406;2023-02-28T06:05:50;33.30;;;19.33;;
3427;SDS011;1727;42.624;23.406;2023-02-28T06:08:18;39.77;;;19.73;;
3427;SDS011;1727;42.624;23.406;2023-02-28T06:10:45;51.13;;;21.07;;
3427;SDS011;1727;42.624;23.406;2023-02-28T06:13:11;34.30;;;20.57;;
3427;SDS011;1727;42.624;23.406;2023-02-28T06:15:38;42.80;;;23.60;;
3427;SDS011;1727;42.624;23.406;2023-02-28T06:18:05;32.70;;;19.20;;
3427;SDS011;1727;42.624;23.406;2023-02-28T06:20:32;41.93;;;21.47;;
3427;SDS011;1727;42.624;23.406;2023-02-28T06:22:59;31.83;;;20.00;;
3427;SDS011;1727;42.624;23.406;2023-02-28T06:25:27;34.37;;;22.70;;
3427;SDS011;1727;42.624;23.406;2023-02-28T06:27:54;38.40;;;23.10;;
3427;SDS011;1727;42.624;23.406;2023-02-28T06:30:21;41.10;;;22.07;;
3427;SDS011;1727;42.624;23.406;2023-02-28T06:32:52;35.30;;;19.80;;
3427;SDS011;1727;42.624;23.406;2023-02-28T06:35:18;40.13;;;21.50;;
3427;SDS011;1727;42.624;23.406;2023-02-28T06:37:45;30.73;;;18.07;;
3427;SDS011;1727;42.624;23.406;2023-02-28T06:40:13;30.03;;;20.00;;
3427;SDS011;1727;42.624;23.406;2023-02-28T06:42:41;35.40;;;20.50;;
3427;SDS011;1727;42.624;23.406;2023-02-28T06:45:08;32.03;;;19.50;;
3427;SDS011;1727;42.624;23.406;2023-02-28T06:47:36;35.77;;;20.80;;
3427;SDS011;1727;42.624;23.406;2023-02-28T06:50:03;35.37;;;22.00;;
3427;SDS011;1727;42.624;23.406;2023-02-28T06:52:30;35.60;;;22.10;;
3427;SDS011;1727;42.624;23.406;2023-02-28T06:54:57;35.10;;;20.90;;
3427;SDS011;1727;42.624;23.406;2023-02-28T06:57:27;31.77;;;20.33;;
3427;SDS011;1727;42.624;23.406;2023-02-28T06:59:57;28.23;;;20.23;;
3427;SDS011;1727;42.624;23.406;2023-02-28T07:02:25;36.47;;;21.20;;
3427;SDS011;1727;42.624;23.406;2023-02-28T07:04:52;34.00;;;22.00;;
3427;SDS011;1727;42.624;23.406;2023-02-28T07:07:19;33.20;;;19.50;;
3427;SDS011;1727;42.624;23.406;2023-02-28T07:09:45;27.87;;;18.33;;
3427;SDS011;1727;42.624;23.406;2023-02-28T07:12:12;35.47;;;22.37;;
3427;SDS011;1727;42.624;23.406;2023-02-28T07:14:39;34.40;;;21.03;;
3427;SDS011;1727;42.624;23.406;2023-02-28T07:17:08;30.57;;;19.90;;
3427;SDS011;1727;42.624;23.406;2023-02-28T07:19:37;35.80;;;21.90;;
3427;SDS011;1727;42.624;23.406;2023-02-28T07:22:04;33.30;;;21.30;;
3427;SDS011;1727;42.624;23.406;2023-02-28T07:24:31;36.07;;;22.03;;
3427;SDS011;1727;42.624;23.406;2023-02-28T07:26:58;39.33;;;20.07;;
3427;SDS011;1727;42.624;23.406;2023-02-28T07:29:26;33.93;;;20.80;;
3427;SDS011;1727;42.624;23.406;2023-02-28T07:31:53;36.33;;;19.63;;
3427;SDS011;1727;42.624;23.406;2023-02-28T07:34:21;38.93;;;21.40;;
3427;SDS011;1727;42.624;23.406;2023-02-28T07:36:48;33.40;;;19.80;;
3427;SDS011;1727;42.624;23.406;2023-02-28T07:39:18;40.37;;;21.20;;
3427;SDS011;1727;42.624;23.406;2023-02-28T07:41:45;40.13;;;20.10;;
3427;SDS011;1727;42.624;23.406;2023-02-28T07:44:12;38.10;;;21.70;;
3427;SDS011;1727;42.624;23.406;2023-02-28T07:46:39;33.43;;;20.30;;
3427;SDS011;1727;42.624;23.406;2023-02-28T07:49:05;37.77;;;18.63;;
3427;SDS011;1727;42.624;23.406;2023-02-28T07:51:34;35.63;;;19.90;;
3427;SDS011;1727;42.624;23.406;2023-02-28T07:54:00;54.00;;;22.27;;
3427;SDS011;1727;42.624;23.406;2023-02-28T07:56:27;38.10;;;19.90;;
3427;SDS011;1727;42.624;23.406;2023-02-28T07:58:54;42.57;;;22.43;;
3427;SDS011;1727;42.624;23.406;2023-02-28T08:01:20;49.13;;;20.60;;
3427;SDS011;1727;42.624;23.406;2023-02-28T08:03:47;32.67;;;20.23;;
3427;SDS011;1727;42.624;23.406;2023-02-28T08:06:16;31.10;;;19.60;;
3427;SDS011;1727;42.624;23.406;2023-02-28T08:08:45;36.17;;;20.27;;
3427;SDS011;1727;42.624;23.406;2023-02-28T08:11:12;36.17;;;22.07;;
3427;SDS011;1727;42.624;23.406;2023-02-28T08:13:39;37.77;;;22.20;;
3427;SDS011;1727;42.624;23.406;2023-02-28T08:16:07;38.80;;;21.00;;
3427;SDS011;1727;42.624;23.406;2023-02-28T08:18:34;42.47;;;20.67;;
3427;SDS011;1727;42.624;23.406;2023-02-28T08:21:05;31.63;;;19.57;;
3427;SDS011;1727;42.624;23.406;2023-02-28T08:23:33;41.77;;;23.73;;
3427;SDS011;1727;42.624;23.406;2023-02-28T08:26:02;49.27;;;23.37;;
3427;SDS011;1727;42.624;23.406;2023-02-28T08:28:30;35.20;;;20.50;;
3427;SDS011;1727;42.624;23.406;2023-02-28T08:30:56;43.33;;;23.60;;
3427;SDS011;1727;42.624;23.406;2023-02-28T08:33:23;37.47;;;20.50;;
3427;SDS011;1727;42.624;23.406;2023-02-28T08:35:52;40.53;;;19.77;;
3427;SDS011;1727;42.624;23.406;2023-02-28T08:38:20;30.47;;;17.53;;
3427;SDS011;1727;42.624;23.406;2023-02-28T08:40:47;33.23;;;18.40;;
3427;SDS011;1727;42.624;23.406;2023-02-28T08:43:15;30.70;;;17.50;;
3427;SDS011;1727;42.624;23.406;2023-02-28T08:45:42;23.17;;;17.07;;
3427;SDS011;1727;42.624;23.406;2023-02-28T08:48:09;20.93;;;12.60;;
3427;SDS011;1727;42.624;23.406;2023-02-28T08:50:36;28.63;;;13.50;;
3427;SDS011;1727;42.624;23.406;2023-02-28T08:53:02;28.73;;;13.73;;
3427;SDS011;1727;42.624;23.406;2023-02-28T08:55:29;25.50;;;13.13;;
3427;SDS011;1727;42.624;23.406;2023-02-28T08:57:56;24.10;;;11.90;;
3427;SDS011;1727;42.624;23.406;2023-02-28T09:00:24;34.47;;;13.47;;
3427;SDS011;1727;42.624;23.406;2023-02-28T09:02:51;32.93;;;14.07;;
3427;SDS011;1727;42.624;23.406;2023-02-28T09:05:19;26.80;;;11.77;;
3427;SDS011;1727;42.624;23.406;2023-02-28T09:07:46;22.87;;;10.80;;
3427;SDS011;1727;42.624;23.406;2023-02-28T09:10:13;29.27;;;10.77;;
3427;SDS011;1727;42.624;23.406;2023-02-28T09:12:39;19.43;;;12.17;;
3427;SDS011;1727;42.624;23.406;2023-02-28T09:15:07;26.00;;;12.33;;
3427;SDS011;1727;42.624;23.406;2023-02-28T09:17:35;22.17;;;11.70;;
3427;SDS011;1727;42.624;23.406;2023-02-28T09:20:02;23.83;;;11.87;;
3427;SDS011;1727;42.624;23.406;2023-02-28T09:22:30;12.90;;;10.27;;
3427;SDS011;1727;42.624;23.406;2023-02-28T09:24:57;36.77;;;11.23;;
3427;SDS011;1727;42.624;23.406;2023-02-28T09:27:24;17.13;;;9.50;;
3427;SDS011;1727;42.624;23.406;2023-02-28T09:29:51;23.70;;;10.30;;
3427;SDS011;1727;42.624;23.406;2023-02-28T09:32:18;15.73;;;8.60;;
3427;SDS011;1727;42.624;23.406;2023-02-28T09:34:46;23.83;;;10.80;;
3427;SDS011;1727;42.624;23.406;2023-02-28T09:37:12;22.80;;;11.30;;
3427;SDS011;1727;42.624;23.406;2023-02-28T09:39:39;18.30;;;10.10;;
3427;SDS011;1727;42.624;23.406;2023-02-28T09:42:11;22.33;;;10.60;;
3427;SDS011;1727;42.624;23.406;2023-02-28T09:44:48;20.30;;;10.87;;
3427;SDS011;1727;42.624;23.406;2023-02-28T09:47:18;16.60;;;10.00;;
3427;SDS011;1727;42.624;23.406;2023-02-28T09:49:54;23.20;;;10.70;;
3427;SDS011;1727;42.624;23.406;2023-02-28T09:52:25;21.73;;;11.07;;
3427;SDS011;1727;42.624;23.406;2023-02-28T09:54:55;25.93;;;11.77;;
3427;SDS011;1727;42.624;23.406;2023-02-28T09:57:25;29.43;;;10.27;;
3427;SDS011;1727;42.624;23.406;2023-02-28T10:00:02;17.77;;;10.63;;
3427;SDS011;1727;42.624;23.406;2023-02-28T10:02:46;21.07;;;9.87;;
3427;SDS011;1727;42.624;23.406;2023-02-28T10:05:25;19.83;;;9.93;;
3427;SDS011;1727;42.624;23.406;2023-02-28T10:08:00;23.07;;;10.97;;
3427;SDS011;1727;42.624;23.406;2023-02-28T10:10:35;24.43;;;10.97;;
3427;SDS011;1727;42.624;23.406;2023-02-28T10:13:06;24.17;;;11.60;;
3427;SDS011;1727;42.624;23.406;2023-02-28T10:15:41;32.23;;;10.97;;
3427;SDS011;1727;42.624;23.406;2023-02-28T10:18:12;18.10;;;9.97;;
3427;SDS011;1727;42.624;23.406;2023-02-28T10:20:43;19.30;;;10.03;;
3427;SDS011;1727;42.624;23.406;2023-02-28T10:23:12;20.07;;;11.03;;
3427;SDS011;1727;42.624;23.406;2023-02-28T10:25:46;26.90;;;12.03;;
3427;SDS011;1727;42.624;23.406;2023-02-28T10:28:19;17.63;;;10.03;;
3427;SDS011;1727;42.624;23.406;2023-02-28T10:30:47;24.20;;;10.50;;
3427;SDS011;1727;42.624;23.406;2023-02-28T10:33:21;24.23;;;10.67;;
3427;SDS011;1727;42.624;23.406;2023-02-28T10:35:51;28.67;;;12.10;;
3427;SDS011;1727;42.624;23.406;2023-02-28T10:38:20;19.60;;;9.43;;
3427;SDS011;1727;42.624;23.406;2023-02-28T10:40:48;30.87;;;12.70;;
3427;SDS011;1727;42.624;23.406;2023-02-28T10:43:19;18.13;;;9.07;;
3427;SDS011;1727;42.624;23.406;2023-02-28T10:45:56;28.33;;;11.50;;
3427;SDS011;1727;42.624;23.406;2023-02-28T10:48:36;28.93;;;14.47;;
3427;SDS011;1727;42.624;23.406;2023-02-28T10:51:05;19.93;;;11.70;;
3427;SDS011;1727;42.624;23.406;2023-02-28T10:53:35;22.03;;;11.93;;
3427;SDS011;1727;42.624;23.406;2023-02-28T10:56:09;32.80;;;11.80;;
3427;SDS011;1727;42.624;23.406;2023-02-28T10:58:46;22.53;;;11.80;;
3427;SDS011;1727;42.624;23.406;2023-02-28T11:01:17;15.27;;;9.37;;
3427;SDS011;1727;42.624;23.406;2023-02-28T11:03:46;20.73;;;11.50;;
3427;SDS011;1727;42.624;23.406;2023-02-28T11:06:16;29.47;;;13.70;;
3427;SDS011;1727;42.624;23.406;2023-02-28T11:08:46;32.80;;;13.13;;
3427;SDS011;1727;42.624;23.406;2023-02-28T11:11:15;13.63;;;9.80;;
3427;SDS011;1727;42.624;23.406;2023-02-28T11:13:43;25.50;;;15.30;;
3427;SDS011;1727;42.624;23.406;2023-02-28T11:16:12;29.23;;;13.90;;
3427;SDS011;1727;42.624;23.406;2023-02-28T11:18:41;29.70;;;16.43;;
3427;SDS011;1727;42.624;23.406;2023-02-28T11:21:18;24.40;;;13.10;;
3427;SDS011;1727;42.624;23.406;2023-02-28T11:23:49;21.37;;;13.70;;
3427;SDS011;1727;42.624;23.406;2023-02-28T11:29:11;30.90;;;15.60;;
3427;SDS011;1727;42.624;23.406;2023-02-28T11:31:46;19.80;;;11.27;;
3427;SDS011;1727;42.624;23.406;2023-02-28T11:34:27;23.40;;;14.40;;
3427;SDS011;1727;42.624;23.406;2023-02-28T11:36:57;27.50;;;14.10;;
3427;SDS011;1727;42.624;23.406;2023-02-28T11:39:26;29.37;;;12.50;;
3427;SDS011;1727;42.624;23.406;2023-02-28T11:42:03;22.70;;;12.20;;
3427;SDS011;1727;42.624;23.406;2023-02-28T11:44:53;25.47;;;12.73;;
3427;SDS011;1727;42.624;23.406;2023-02-28T11:47:31;32.53;;;14.03;;
3427;SDS011;1727;42.624;23.406;2023-02-28T11:50:08;34.23;;;15.60;;
3427;SDS011;1727;42.624;23.406;2023-02-28T11:52:50;36.33;;;14.40;;
3427;SDS011;1727;42.624;23.406;2023-02-28T11:55:20;33.63;;;13.23;;
3427;SDS011;1727;42.624;23.406;2023-02-28T12:00:57;29.13;;;14.10;;
3427;SDS011;1727;42.624;23.406;2023-02-28T12:03:36;26.57;;;13.83;;
3427;SDS011;1727;42.624;23.406;2023-02-28T12:06:13;22.70;;;11.60;;
3427;SDS011;1727;42.624;23.406;2023-02-28T12:09:04;18.20;;;10.17;;
3427;SDS011;1727;42.624;23.406;2023-02-28T12:11:48;25.30;;;12.67;;
3427;SDS011;1727;42.624;23.406;2023-02-28T12:14:23;23.33;;;14.00;;
3427;SDS011;1727;42.624;23.406;2023-02-28T12:17:03;21.57;;;13.30;;
3427;SDS011;1727;42.624;23.406;2023-02-28T12:19:42;22.90;;;12.00;;
3427;SDS011;1727;42.624;23.406;2023-02-28T12:22:20;26.93;;;12.77;;
3427;SDS011;1727;42.624;23.406;2023-02-28T12:25:00;26.00;;;12.70;;
3427;SDS011;1727;42.624;23.406;2023-02-28T12:27:45;22.90;;;12.67;;
3427;SDS011;1727;42.624;23.406;2023-02-28T12:30:16;33.43;;;16.47;;
3427;SDS011;1727;42.624;23.406;2023-02-28T12:32:47;25.83;;;15.30;;
3427;SDS011;1727;42.624;23.406;2023-02-28T12:35:19;25.17;;;14.53;;
3427;SDS011;1727;42.624;23.406;2023-02-28T12:37:51;28.13;;;14.77;;
3427;SDS011;1727;42.624;23.406;2023-02-28T12:40:27;24.30;;;11.80;;
3427;SDS011;1727;42.624;23.406;2023-02-28T12:43:08;22.60;;;13.70;;
3427;SDS011;1727;42.624;23.406;2023-02-28T12:45:39;40.83;;;14.20;;
3427;SDS011;1727;42.624;23.406;2023-02-28T12:48:10;27.47;;;13.37;;
3427;SDS011;1727;42.624;23.406;2023-02-28T12:50:40;24.17;;;13.67;;
3427;SDS011;1727;42.624;23.406;2023-02-28T12:53:09;28.23;;;16.63;;
3427;SDS011;1727;42.624;23.406;2023-02-28T12:55:50;25.87;;;16.30;;
3427;SDS011;1727;42.624;23.406;2023-02-28T12:58:26;28.70;;;13.43;;
3427;SDS011;1727;42.624;23.406;2023-02-28T13:01:06;25.40;;;12.00;;
3427;SDS011;1727;42.624;23.406;2023-02-28T13:07:16;26.20;;;12.37;;
3427;SDS011;1727;42.624;23.406;2023-02-28T13:10:02;19.97;;;12.20;;
3427;SDS011;1727;42.624;23.406;2023-02-28T13:12:32;20.07;;;12.90;;
3427;SDS011;1727;42.624;23.406;2023-02-28T13:15:02;18.57;;;9.87;;
3427;SDS011;1727;42.624;23.406;2023-02-28T13:17:36;24.57;;;12.17;;
3427;SDS011;1727;42.624;23.406;2023-02-28T13:20:13;19.37;;;11.77;;
3427;SDS011;1727;42.624;23.406;2023-02-28T13:22:42;25.87;;;11.40;;
3427;SDS011;1727;42.624;23.406;2023-02-28T13:31:30;23.67;;;11.10;;
3427;SDS011;1727;42.624;23.406;2023-02-28T13:34:05;22.93;;;12.10;;
3427;SDS011;1727;42.624;23.406;2023-02-28T13:36:40;24.53;;;12.17;;
3427;SDS011;1727;42.624;23.406;2023-02-28T13:42:22;21.03;;;11.53;;
3427;SDS011;1727;42.624;23.406;2023-02-28T13:47:53;23.13;;;11.17;;
3427;SDS011;1727;42.624;23.406;2023-02-28T13:50:23;17.10;;;10.00;;
3427;SDS011;1727;42.624;23.406;2023-02-28T13:52:57;27.17;;;12.70;;
3427;SDS011;1727;42.624;23.406;2023-02-28T13:55:49;30.07;;;12.80;;
3427;SDS011;1727;42.624;23.406;2023-02-28T13:58:25;22.33;;;11.10;;
3427;SDS011;1727;42.624;23.406;2023-02-28T14:01:11;29.53;;;15.37;;
3427;SDS011;1727;42.624;23.406;2023-02-28T14:03:54;24.37;;;13.83;;
3427;SDS011;1727;42.624;23.406;2023-02-28T14:06:32;29.30;;;14.00;;
3427;SDS011;1727;42.624;23.406;2023-02-28T14:09:02;34.77;;;17.63;;
3427;SDS011;1727;42.624;23.406;2023-02-28T14:11:42;24.20;;;12.27;;
3427;SDS011;1727;42.624;23.406;2023-02-28T14:14:52;27.73;;;13.63;;
3427;SDS011;1727;42.624;23.406;2023-02-28T14:17:15;24.90;;;14.13;;
3427;SDS011;1727;42.624;23.406;2023-02-28T14:19:45;22.77;;;14.23;;
3427;SDS011;1727;42.624;23.406;2023-02-28T14:22:17;27.63;;;15.93;;
3427;SDS011;1727;42.624;23.406;2023-02-28T14:25:11;23.55;;;14.07;;
3427;SDS011;1727;42.624;23.406;2023-02-28T14:27:48;28.60;;;15.03;;
3427;SDS011;1727;42.624;23.406;2023-02-28T14:30:40;25.40;;;13.40;;
3427;SDS011;1727;42.624;23.406;2023-02-28T14:33:22;34.40;;;12.90;;
3427;SDS011;1727;42.624;23.406;2023-02-28T14:36:09;19.70;;;12.27;;
3427;SDS011;1727;42.624;23.406;2023-02-28T14:38:41;23.83;;;13.13;;
3427;SDS011;1727;42.624;23.406;2023-02-28T14:41:18;22.00;;;12.30;;
3427;SDS011;1727;42.624;23.406;2023-02-28T14:43:48;24.80;;;11.50;;
3427;SDS011;1727;42.624;23.406;2023-02-28T14:46:16;21.27;;;11.37;;
3427;SDS011;1727;42.624;23.406;2023-02-28T14:48:45;19.20;;;12.23;;
3427;SDS011;1727;42.624;23.406;2023-02-28T14:51:17;24.43;;;11.80;;
3427;SDS011;1727;42.624;23.406;2023-02-28T14:53:47;33.10;;;16.70;;
3427;SDS011;1727;42.624;23.406;2023-02-28T14:56:20;26.00;;;12.90;;
3427;SDS011;1727;42.624;23.406;2023-02-28T14:58:52;21.80;;;11.30;;
3427;SDS011;1727;42.624;23.406;2023-02-28T15:01:20;20.73;;;9.60;;
3427;SDS011;1727;42.624;23.406;2023-02-28T15:03:48;15.40;;;9.50;;
3427;SDS011;1727;42.624;23.406;2023-02-28T15:06:25;19.60;;;9.27;;
3427;SDS011;1727;42.624;23.406;2023-02-28T15:09:06;17.47;;;9.70;;
3427;SDS011;1727;42.624;23.406;2023-02-28T15:11:34;15.43;;;9.63;;
3427;SDS011;1727;42.624;23.406;2023-02-28T15:14:01;28.57;;;11.90;;
3427;SDS011;1727;42.624;23.406;2023-02-28T15:16:29;15.67;;;10.03;;
3427;SDS011;1727;42.624;23.406;2023-02-28T15:19:01;16.33;;;10.93;;
3427;SDS011;1727;42.624;23.406;2023-02-28T15:21:33;24.60;;;11.17;;